createdAt,value
2018-02-23T00:01:29.073Z,0.63
2018-02-23T00:07:48.599Z,0.66
2018-02-23T00:13:53.928Z,0.58
2018-02-23T00:19:59.029Z,0.61
2018-02-23T00:26:04.453Z,0.73
2018-02-23T00:32:09.394Z,0.69
2018-02-23T00:38:14.545Z,0.52
2018-02-23T00:44:21.762Z,0.50
2018-02-23T00:50:30.405Z,0.38
2018-02-23T00:56:37.898Z,0.42
2018-02-23T01:02:43.309Z,0.40
2018-02-23T01:08:49.557Z,0.33
2018-02-23T01:14:56.291Z,0.13
2018-02-23T01:21:02.544Z,-0.07
2018-02-23T01:27:09.743Z,-0.19
2018-02-23T01:33:21.482Z,-0.27
2018-02-23T01:39:27.344Z,-0.47
2018-02-23T01:45:32.890Z,-0.74
2018-02-23T01:51:39.343Z,-0.78
2018-02-23T01:57:44.574Z,-1.03
2018-02-23T02:03:49.708Z,-1.11
2018-02-23T02:09:55.903Z,-1.16
2018-02-23T02:16:01.108Z,-1.26
2018-02-23T02:22:06.281Z,-1.31
2018-02-23T02:28:11.061Z,-1.15
2018-02-23T02:34:15.807Z,-1.03
2018-02-23T02:40:21.181Z,-1.28
2018-02-23T02:46:26.538Z,-1.37
2018-02-23T02:52:32.860Z,-1.29
2018-02-23T02:58:39.381Z,-1.49
2018-02-23T03:04:46.844Z,-1.51
2018-02-23T03:10:56.670Z,-1.81
2018-02-23T03:17:01.641Z,-2.00
2018-02-23T03:23:07.344Z,-2.12
2018-02-23T03:29:12.146Z,-2.33
2018-02-23T03:35:16.850Z,-2.45
2018-02-23T03:41:24.886Z,-2.62
2018-02-23T03:47:32.400Z,-2.67
2018-02-23T03:53:37.382Z,-2.81
2018-02-23T03:59:42.252Z,-2.91
2018-02-23T04:05:48.409Z,-2.91
2018-02-23T04:11:53.579Z,-3.00
2018-02-23T04:17:59.581Z,-3.15
2018-02-23T04:24:04.478Z,-3.34
2018-02-23T04:30:10.115Z,-3.32
2018-02-23T04:36:16.201Z,-3.43
2018-02-23T04:42:21.618Z,-3.50
2018-02-23T04:48:26.583Z,-3.30
2018-02-23T04:54:32.045Z,-3.23
2018-02-23T05:00:37.840Z,-3.03
2018-02-23T05:06:42.705Z,-2.97
2018-02-23T05:12:48.110Z,-2.94
2018-02-23T05:28:38.034Z,-3.30
2018-02-23T05:34:43.136Z,-3.20
2018-02-23T05:40:48.600Z,-3.18
2018-02-23T05:46:55.018Z,-3.05
2018-02-23T05:53:00.110Z,-3.11
2018-02-23T05:59:05.130Z,-3.09
2018-02-23T06:05:10.075Z,-2.97
2018-02-23T06:11:15.161Z,-2.90
2018-02-23T06:17:26.229Z,-2.98
2018-02-23T06:23:31.400Z,-2.95
2018-02-23T06:29:36.152Z,-3.00
2018-02-23T06:35:44.145Z,-2.93
2018-02-23T06:41:51.373Z,-2.95
2018-02-23T06:47:57.005Z,-3.00
2018-02-23T06:54:01.972Z,-3.02
2018-02-23T07:00:07.330Z,-2.97
2018-02-23T07:06:12.790Z,-2.93
2018-02-23T07:12:17.509Z,-2.85
2018-02-23T07:18:23.606Z,-2.69
2018-02-23T07:24:28.759Z,-2.62
2018-02-23T07:30:33.773Z,-2.39
2018-02-23T07:36:39.088Z,-2.30
2018-02-23T07:42:44.095Z,-2.26
2018-02-23T07:48:49.052Z,-2.14
2018-02-23T07:54:54.980Z,-2.07
2018-02-23T08:00:59.689Z,-1.98
2018-02-23T08:07:05.255Z,-1.87
2018-02-23T08:13:09.983Z,-1.83
2018-02-23T08:19:15.443Z,-1.75
2018-02-23T08:25:20.914Z,-1.68
2018-02-23T08:31:26.388Z,-1.58
2018-02-23T08:37:32.259Z,-1.54
2018-02-23T08:43:37.192Z,-1.43
2018-02-23T08:49:43.154Z,-1.40
2018-02-23T08:55:48.116Z,-1.25
2018-02-23T09:01:54.518Z,-1.21
2018-02-23T09:07:59.229Z,-1.02
2018-02-23T09:14:04.514Z,-0.81
2018-02-23T09:20:09.930Z,-0.79
2018-02-23T09:26:15.449Z,-0.55
2018-02-23T09:38:55.207Z,-0.24
2018-02-23T09:44:59.767Z,-0.12
2018-02-23T09:51:04.339Z,-0.01
2018-02-23T09:57:08.902Z,0.06
2018-02-23T10:03:13.598Z,0.09
2018-02-23T10:09:18.409Z,0.17
2018-02-23T10:15:23.702Z,0.23
2018-02-23T10:21:28.315Z,0.35
2018-02-23T10:27:32.878Z,0.61
2018-02-23T10:33:37.647Z,0.67
2018-02-23T10:39:42.178Z,0.75
2018-02-23T10:45:47.557Z,0.88
2018-02-23T10:51:52.490Z,1.26
2018-02-23T10:57:57.927Z,1.42
2018-02-23T11:04:02.590Z,1.57
2018-02-23T11:10:07.089Z,1.77
2018-02-23T11:16:11.933Z,1.61
2018-02-23T11:22:16.585Z,1.64
2018-02-23T11:28:21.393Z,2.05
2018-02-23T11:34:26.123Z,2.80
2018-02-23T11:40:30.763Z,3.37
2018-02-23T11:46:40.471Z,3.34
2018-02-23T11:52:45.064Z,3.45
2018-02-23T11:58:50.146Z,3.14
2018-02-23T12:04:54.747Z,3.35
2018-02-23T12:10:59.386Z,3.32
2018-02-23T12:17:03.964Z,3.47
2018-02-23T12:23:09.320Z,3.93
2018-02-23T12:29:13.926Z,4.59
2018-02-23T12:35:18.554Z,5.90
2018-02-23T12:41:23.546Z,7.71
2018-02-23T12:47:28.170Z,10.26
2018-02-23T12:53:33.684Z,12.58
2018-02-23T12:59:38.259Z,10.25
2018-02-23T13:05:42.883Z,9.90
2018-02-23T13:11:47.644Z,9.39
2018-02-23T13:17:52.426Z,8.83
2018-02-23T13:23:57.781Z,7.92
2018-02-23T13:30:02.340Z,7.61
2018-02-23T13:36:07.757Z,7.38
2018-02-23T13:42:12.411Z,7.05
2018-02-23T13:48:18.717Z,7.85
2018-02-23T13:54:24.560Z,7.65
2018-02-23T14:00:29.808Z,9.26
2018-02-23T14:06:36.867Z,8.76
2018-02-23T14:12:44.752Z,9.31
2018-02-23T14:25:38.345Z,7.96
2018-02-23T14:31:43.143Z,6.60
2018-02-23T14:37:50.746Z,4.99
2018-02-23T14:44:01.259Z,4.68
2018-02-23T14:50:24.608Z,4.13
2018-02-23T14:56:31.611Z,3.40
2018-02-23T15:02:36.710Z,3.20
2018-02-23T15:08:42.420Z,2.78
2018-02-23T15:14:48.993Z,2.71
2018-02-23T15:20:55.772Z,2.24
2018-02-23T15:27:01.255Z,2.20
2018-02-23T15:33:05.865Z,2.41
2018-02-23T15:39:10.743Z,2.41
2018-02-23T15:45:16.614Z,2.42
2018-02-23T15:51:25.537Z,2.20
2018-02-23T15:57:31.575Z,1.99
2018-02-23T16:03:36.227Z,1.88
2018-02-23T16:09:42.115Z,1.92
2018-02-23T16:15:48.290Z,1.24
2018-02-23T16:21:54.326Z,0.80
2018-02-23T16:27:59.443Z,0.49
2018-02-23T16:34:04.158Z,0.23
2018-02-23T16:40:09.052Z,0.03
2018-02-23T16:46:14.244Z,-0.18
2018-02-23T16:52:19.988Z,-0.21
2018-02-23T16:58:24.758Z,-0.38
2018-02-23T17:04:29.532Z,-0.47
2018-02-23T17:10:34.144Z,-0.65
2018-02-23T17:16:40.117Z,-0.75
2018-02-23T17:22:44.870Z,-0.92
2018-02-23T17:28:52.326Z,-1.04
2018-02-23T17:34:57.171Z,-1.02
2018-02-23T17:41:02.450Z,-1.11
2018-02-23T17:47:07.217Z,-1.22
2018-02-23T17:53:12.289Z,-1.24
2018-02-23T17:59:17.094Z,-1.28
2018-02-23T18:05:26.002Z,-1.39
2018-02-23T18:11:30.628Z,-1.44
2018-02-23T18:17:35.419Z,-1.53
2018-02-23T18:23:40.260Z,-1.63
2018-02-23T18:29:46.153Z,-1.72
2018-02-23T18:35:52.513Z,-1.86
2018-02-23T18:41:57.835Z,-2.03
2018-02-23T18:48:04.847Z,-2.10
2018-02-23T18:54:09.646Z,-2.10
2018-02-23T19:00:15.195Z,-2.01
2018-02-23T19:06:20.106Z,-2.05
2018-02-23T19:12:24.794Z,-2.08
2018-02-23T19:18:30.360Z,-2.20
2018-02-23T19:24:35.032Z,-2.10
2018-02-23T19:30:39.735Z,-2.02
2018-02-23T19:36:44.335Z,-2.01
2018-02-23T19:42:50.947Z,-2.02
2018-02-23T19:48:56.858Z,-2.00
2018-02-23T19:55:01.532Z,-2.02
2018-02-23T20:01:06.516Z,-2.16
2018-02-23T20:07:11.397Z,-2.15
2018-02-23T20:13:16.862Z,-2.23
2018-02-23T20:19:23.347Z,-2.38
2018-02-23T20:25:28.112Z,-2.62
2018-02-23T20:31:32.808Z,-2.55
2018-02-23T20:37:39.074Z,-2.72
2018-02-23T20:43:44.713Z,-2.85
2018-02-23T20:49:50.773Z,-3.02
2018-02-23T20:55:56.440Z,-3.29
2018-02-23T21:02:01.477Z,-3.45
2018-02-23T21:08:06.268Z,-3.31
2018-02-23T21:14:11.200Z,-3.36
2018-02-23T21:20:15.954Z,-3.58
2018-02-23T21:26:20.939Z,-3.67
2018-02-23T21:32:26.088Z,-3.78
2018-02-23T21:38:30.736Z,-3.79
2018-02-23T21:44:48.151Z,-3.85
2018-02-23T21:50:53.161Z,-3.71
2018-02-23T21:56:58.742Z,-3.61
2018-02-23T22:03:03.428Z,-3.54
2018-02-23T22:09:09.723Z,-3.63
2018-02-23T22:15:14.461Z,-3.61
2018-02-23T22:21:20.023Z,-3.79
2018-02-23T22:27:25.386Z,-4.05
2018-02-23T22:33:30.081Z,-4.12
2018-02-23T22:39:34.806Z,-4.32
2018-02-23T22:45:40.200Z,-4.35
2018-02-23T22:51:46.024Z,-4.43
2018-02-23T22:57:51.568Z,-4.40
2018-02-23T23:03:56.474Z,-4.46
2018-02-23T23:10:01.097Z,-4.48
2018-02-23T23:16:07.236Z,-4.54
2018-02-23T23:22:12.096Z,-4.49
2018-02-23T23:28:17.051Z,-4.50
2018-02-23T23:34:23.488Z,-4.44
2018-02-23T23:40:28.869Z,-4.66
2018-02-23T23:46:33.588Z,-4.82
2018-02-23T23:52:38.365Z,-4.67
2018-02-23T23:58:44.852Z,-4.66
